createdAt,value
2022-12-20T00:01:25.434Z,4.15
2022-12-20T00:03:53.966Z,4.14
2022-12-20T00:06:21.599Z,4.18
2022-12-20T00:08:53.766Z,4.21
2022-12-20T00:11:20.698Z,4.27
2022-12-20T00:13:47.608Z,4.28
2022-12-20T00:16:25.835Z,4.21
2022-12-20T00:18:53.568Z,4.26
2022-12-20T00:21:20.358Z,4.29
2022-12-20T00:23:47.212Z,4.28
2022-12-20T00:26:18.027Z,4.34
2022-12-20T00:28:45.503Z,4.33
2022-12-20T00:31:14.747Z,4.32
2022-12-20T00:33:44.769Z,4.32
2022-12-20T00:36:11.554Z,4.29
2022-12-20T00:38:38.257Z,4.33
2022-12-20T00:41:06.891Z,4.35
2022-12-20T00:43:34.486Z,4.36
2022-12-20T00:46:01.726Z,4.34
2022-12-20T00:48:29.794Z,4.32
2022-12-20T00:51:07.827Z,4.41
2022-12-20T00:53:35.664Z,4.36
2022-12-20T00:56:03.399Z,4.42
2022-12-20T00:58:31.834Z,4.46
2022-12-20T01:00:58.573Z,4.45
2022-12-20T01:03:26.918Z,4.50
2022-12-20T01:05:59.360Z,4.56
2022-12-20T01:08:28.134Z,4.62
2022-12-20T01:11:03.220Z,4.65
2022-12-20T01:13:30.644Z,4.68
2022-12-20T01:16:03.426Z,4.72
2022-12-20T01:18:30.206Z,4.75
2022-12-20T01:21:02.482Z,4.76
2022-12-20T01:23:29.296Z,4.74
2022-12-20T01:25:58.627Z,4.78
2022-12-20T01:28:25.459Z,4.80
2022-12-20T01:30:52.245Z,4.78
2022-12-20T01:33:19.142Z,4.76
2022-12-20T01:36:00.004Z,4.72
2022-12-20T01:38:27.696Z,4.65
2022-12-20T01:40:54.977Z,4.67
2022-12-20T01:43:22.876Z,4.67
2022-12-20T01:45:50.743Z,4.65
2022-12-20T01:48:23.672Z,4.63
2022-12-20T01:50:51.491Z,4.56
2022-12-20T01:53:20.465Z,4.53
2022-12-20T01:55:47.891Z,4.54
2022-12-20T01:58:16.398Z,4.47
2022-12-20T02:00:43.322Z,4.39
2022-12-20T02:03:13.714Z,4.39
2022-12-20T02:05:47.759Z,4.34
2022-12-20T02:08:18.215Z,4.27
2022-12-20T02:10:47.896Z,4.28
2022-12-20T02:13:33.089Z,4.21
2022-12-20T02:16:00.303Z,4.19
2022-12-20T02:18:26.957Z,4.16
2022-12-20T02:21:08.347Z,4.16
2022-12-20T02:23:43.187Z,4.23
2022-12-20T02:26:15.969Z,4.24
2022-12-20T02:29:13.873Z,4.27
2022-12-20T02:31:47.088Z,4.30
2022-12-20T02:34:15.594Z,4.30
2022-12-20T02:36:42.357Z,4.35
2022-12-20T02:39:15.109Z,4.37
2022-12-20T02:41:47.374Z,4.41
2022-12-20T02:44:36.425Z,4.46
2022-12-20T02:47:06.116Z,4.44
2022-12-20T02:49:38.566Z,4.47
2022-12-20T02:52:06.421Z,4.46
2022-12-20T02:54:33.594Z,4.48
2022-12-20T02:57:15.678Z,4.53
2022-12-20T02:59:54.902Z,4.58
2022-12-20T03:02:23.587Z,4.58
2022-12-20T03:04:51.490Z,4.64
2022-12-20T03:07:18.220Z,4.65
2022-12-20T03:09:45.744Z,4.65
2022-12-20T03:12:14.126Z,4.67
2022-12-20T03:14:40.985Z,4.68
2022-12-20T03:17:08.490Z,4.71
2022-12-20T03:19:35.695Z,4.76
2022-12-20T03:22:02.426Z,4.77
2022-12-20T03:24:30.098Z,4.81
2022-12-20T03:26:56.860Z,4.77
2022-12-20T03:29:23.807Z,4.81
2022-12-20T03:31:50.470Z,4.82
2022-12-20T03:34:17.176Z,4.84
2022-12-20T03:36:44.130Z,4.88
2022-12-20T03:39:10.885Z,4.83
2022-12-20T03:41:37.755Z,4.92
2022-12-20T03:44:04.727Z,4.95
2022-12-20T03:46:31.474Z,5.00
2022-12-20T03:48:59.284Z,5.03
2022-12-20T03:51:25.963Z,5.06
2022-12-20T03:53:52.624Z,5.09
2022-12-20T03:56:19.421Z,5.09
2022-12-20T03:58:46.183Z,5.15
2022-12-20T04:01:21.867Z,5.17
2022-12-20T04:03:49.075Z,5.13
2022-12-20T04:06:16.224Z,5.18
2022-12-20T04:08:43.395Z,5.21
2022-12-20T04:11:16.470Z,5.19
2022-12-20T04:13:54.571Z,5.17
2022-12-20T04:16:25.286Z,5.21
2022-12-20T04:18:52.487Z,5.19
2022-12-20T04:21:24.719Z,5.21
2022-12-20T04:23:51.791Z,5.21
2022-12-20T04:26:18.928Z,5.16
2022-12-20T04:28:45.700Z,5.18
2022-12-20T04:31:15.088Z,5.18
2022-12-20T04:33:45.787Z,5.24
2022-12-20T04:36:12.506Z,5.22
2022-12-20T04:38:39.144Z,5.19
2022-12-20T04:41:06.179Z,5.28
2022-12-20T04:43:33.471Z,5.24
2022-12-20T04:46:00.388Z,5.24
2022-12-20T04:51:16.899Z,5.30
2022-12-20T04:53:50.040Z,5.33
2022-12-20T04:56:19.014Z,5.31
2022-12-20T04:58:46.744Z,5.38
2022-12-20T05:01:13.607Z,5.36
2022-12-20T05:03:41.062Z,5.39
2022-12-20T05:06:08.747Z,5.46
2022-12-20T05:08:36.300Z,5.45
2022-12-20T05:11:03.451Z,5.43
2022-12-20T05:13:30.428Z,5.39
2022-12-20T05:15:58.666Z,5.45
2022-12-20T05:18:27.089Z,5.48
2022-12-20T05:21:19.591Z,5.47
2022-12-20T05:24:16.729Z,5.43
2022-12-20T05:26:43.506Z,5.51
2022-12-20T05:29:10.777Z,5.50
2022-12-20T05:31:37.824Z,5.54
2022-12-20T05:34:04.617Z,5.51
2022-12-20T05:36:31.318Z,5.46
2022-12-20T05:39:03.555Z,5.46
2022-12-20T05:41:30.804Z,5.48
2022-12-20T05:43:57.853Z,5.50
2022-12-20T05:46:24.908Z,5.52
2022-12-20T05:48:52.595Z,5.55
2022-12-20T05:51:19.274Z,5.61
2022-12-20T05:53:46.166Z,5.63
2022-12-20T05:56:12.936Z,5.61
2022-12-20T05:58:40.304Z,5.63
2022-12-20T06:01:08.608Z,5.61
2022-12-20T06:03:35.414Z,5.68
2022-12-20T06:06:02.206Z,5.57
2022-12-20T06:08:29.071Z,5.59
2022-12-20T06:10:56.053Z,5.59
2022-12-20T06:13:22.893Z,5.60
2022-12-20T06:15:49.641Z,5.60
2022-12-20T06:18:16.400Z,5.60
2022-12-20T06:20:43.210Z,5.62
2022-12-20T06:23:09.960Z,5.62
2022-12-20T06:25:38.189Z,5.61
2022-12-20T06:28:05.809Z,5.62
2022-12-20T06:30:34.233Z,5.63
2022-12-20T06:33:02.618Z,5.62
2022-12-20T06:35:30.221Z,5.61
2022-12-20T06:37:57.392Z,5.65
2022-12-20T06:40:24.803Z,5.64
2022-12-20T06:42:51.840Z,5.65
2022-12-20T06:45:18.831Z,5.79
2022-12-20T06:47:45.653Z,5.74
2022-12-20T06:50:12.763Z,5.69
2022-12-20T06:52:39.609Z,5.77
2022-12-20T06:55:06.671Z,5.76
2022-12-20T06:57:33.518Z,5.74
2022-12-20T07:00:00.296Z,5.78
2022-12-20T07:02:28.036Z,5.78
2022-12-20T07:04:55.223Z,5.77
2022-12-20T07:07:22.198Z,5.77
2022-12-20T07:09:48.940Z,5.79
2022-12-20T07:12:15.725Z,5.75
2022-12-20T07:14:42.425Z,5.75
2022-12-20T07:17:09.589Z,5.77
2022-12-20T07:19:37.028Z,5.75
2022-12-20T07:22:04.353Z,5.74
2022-12-20T07:24:31.403Z,5.72
2022-12-20T07:26:58.321Z,5.77
2022-12-20T07:29:25.781Z,5.84
2022-12-20T07:31:53.236Z,5.80
2022-12-20T07:34:20.202Z,5.79
2022-12-20T07:36:47.369Z,5.79
2022-12-20T07:39:14.072Z,5.80
2022-12-20T07:41:41.059Z,5.81
2022-12-20T07:44:07.981Z,5.83
2022-12-20T07:46:34.771Z,5.81
2022-12-20T07:49:01.754Z,5.79
2022-12-20T07:51:31.768Z,5.81
2022-12-20T07:54:12.527Z,5.82
2022-12-20T07:56:44.630Z,5.87
2022-12-20T07:59:14.142Z,5.86
2022-12-20T08:01:43.622Z,5.86
2022-12-20T08:04:24.343Z,5.91
2022-12-20T08:06:54.045Z,5.91
2022-12-20T08:09:21.019Z,5.94
2022-12-20T08:11:48.849Z,5.95
2022-12-20T08:14:17.022Z,5.95
2022-12-20T08:16:43.832Z,5.95
2022-12-20T08:19:11.269Z,5.97
2022-12-20T08:21:38.220Z,6.19
2022-12-20T08:24:05.305Z,6.10
2022-12-20T08:26:31.971Z,6.10
2022-12-20T08:28:58.653Z,6.14
2022-12-20T08:31:25.481Z,6.16
2022-12-20T08:33:55.226Z,6.11
2022-12-20T08:36:22.790Z,6.17
2022-12-20T08:38:49.702Z,6.17
2022-12-20T08:41:16.837Z,6.22
2022-12-20T08:43:43.674Z,6.27
2022-12-20T08:46:12.226Z,6.29
2022-12-20T08:48:39.661Z,6.31
2022-12-20T08:51:09.053Z,6.37
2022-12-20T08:53:36.720Z,6.35
2022-12-20T08:56:11.959Z,6.40
2022-12-20T08:58:39.555Z,6.44
2022-12-20T09:01:09.364Z,6.44
2022-12-20T09:03:37.469Z,6.46
2022-12-20T09:06:10.035Z,6.41
2022-12-20T09:08:37.868Z,6.46
2022-12-20T09:11:06.916Z,6.50
2022-12-20T09:13:37.984Z,6.44
2022-12-20T09:16:09.224Z,6.44
2022-12-20T09:18:36.324Z,6.46
2022-12-20T09:21:11.408Z,6.51
2022-12-20T09:23:38.575Z,6.52
2022-12-20T09:26:07.884Z,6.50
2022-12-20T09:28:35.127Z,6.51
2022-12-20T09:31:05.297Z,6.49
2022-12-20T09:33:33.743Z,6.52
2022-12-20T09:36:01.853Z,6.52
2022-12-20T09:38:29.643Z,6.55
2022-12-20T09:41:00.454Z,6.55
2022-12-20T09:43:28.300Z,6.65
2022-12-20T09:45:58.304Z,6.67
2022-12-20T09:48:31.374Z,6.74
2022-12-20T09:51:10.344Z,6.80
2022-12-20T09:53:57.163Z,6.75
2022-12-20T09:56:32.073Z,6.79
2022-12-20T09:59:06.906Z,6.76
2022-12-20T10:01:39.578Z,6.80
2022-12-20T10:04:19.643Z,6.84
2022-12-20T10:07:27.982Z,6.90
2022-12-20T10:10:32.156Z,6.84
2022-12-20T10:13:14.120Z,6.85
2022-12-20T10:15:51.220Z,6.87
2022-12-20T10:18:24.735Z,6.93
2022-12-20T10:21:07.493Z,6.95
2022-12-20T10:23:44.221Z,6.97
2022-12-20T10:26:13.302Z,6.96
2022-12-20T10:28:41.236Z,7.01
2022-12-20T10:31:14.264Z,7.03
2022-12-20T10:33:41.493Z,7.07
2022-12-20T10:36:18.570Z,7.09
2022-12-20T10:38:48.233Z,7.18
2022-12-20T10:41:22.697Z,7.23
2022-12-20T10:43:53.183Z,7.27
2022-12-20T10:46:20.071Z,7.31
2022-12-20T10:48:48.651Z,7.33
2022-12-20T10:51:19.207Z,7.40
2022-12-20T10:54:04.057Z,7.46
2022-12-20T10:56:31.032Z,7.50
2022-12-20T10:59:31.740Z,7.64
2022-12-20T11:01:58.671Z,7.78
2022-12-20T11:04:35.935Z,7.84
2022-12-20T11:07:21.597Z,7.92
2022-12-20T11:09:56.746Z,7.97
2022-12-20T11:12:23.739Z,8.06
2022-12-20T11:14:50.746Z,8.17
2022-12-20T11:17:29.423Z,8.24
2022-12-20T11:20:02.453Z,8.32
2022-12-20T11:22:43.551Z,8.59
2022-12-20T11:25:35.152Z,8.73
2022-12-20T11:28:41.073Z,8.85
2022-12-20T11:31:25.951Z,8.75
2022-12-20T11:34:50.195Z,8.75
2022-12-20T11:37:24.283Z,8.47
2022-12-20T11:39:56.566Z,8.37
2022-12-20T11:42:42.239Z,8.42
2022-12-20T11:45:33.785Z,8.49
2022-12-20T11:48:30.859Z,8.51
2022-12-20T11:51:04.391Z,8.50
2022-12-20T11:53:42.167Z,8.68
2022-12-20T11:56:38.659Z,8.70
2022-12-20T11:59:28.908Z,8.73
2022-12-20T12:02:22.243Z,8.64
2022-12-20T12:05:16.816Z,8.58
2022-12-20T12:07:49.275Z,8.56
2022-12-20T12:10:23.699Z,8.56
2022-12-20T12:13:17.959Z,8.55
2022-12-20T12:16:03.812Z,8.50
2022-12-20T12:18:35.946Z,8.55
2022-12-20T12:21:19.523Z,8.44
2022-12-20T12:23:59.920Z,8.48
2022-12-20T12:26:36.368Z,8.45
2022-12-20T12:29:09.055Z,8.51
2022-12-20T12:31:45.857Z,8.52
2022-12-20T12:34:31.062Z,8.47
2022-12-20T12:37:19.788Z,8.49
2022-12-20T12:40:20.498Z,8.52
2022-12-20T12:43:11.928Z,8.46
2022-12-20T12:45:50.462Z,8.43
2022-12-20T12:48:31.889Z,8.45
2022-12-20T12:50:59.391Z,8.49
2022-12-20T12:53:45.123Z,8.58
2022-12-20T12:56:43.344Z,8.53
2022-12-20T12:59:33.079Z,8.53
2022-12-20T13:02:05.947Z,8.51
2022-12-20T13:04:51.831Z,8.46
2022-12-20T13:07:44.922Z,8.46
2022-12-20T13:10:14.685Z,8.46
2022-12-20T13:12:41.472Z,8.42
2022-12-20T13:15:20.426Z,8.39
2022-12-20T13:17:51.507Z,8.38
2022-12-20T13:20:36.023Z,8.37
2022-12-20T13:23:08.766Z,8.35
2022-12-20T13:25:38.400Z,8.39
2022-12-20T13:28:23.602Z,8.36
2022-12-20T13:30:53.368Z,8.30
2022-12-20T13:33:48.517Z,8.27
2022-12-20T13:36:36.284Z,8.22
2022-12-20T13:39:23.414Z,8.20
2022-12-20T13:42:11.869Z,8.22
2022-12-20T13:44:45.586Z,8.21
2022-12-20T13:47:31.229Z,8.20
2022-12-20T13:50:18.343Z,8.17
2022-12-20T13:52:45.436Z,8.16
2022-12-20T13:55:23.201Z,8.11
2022-12-20T13:57:51.657Z,8.08
2022-12-20T14:00:25.672Z,8.11
2022-12-20T14:02:54.437Z,8.02
2022-12-20T14:05:26.513Z,8.08
2022-12-20T14:08:00.930Z,8.02
2022-12-20T14:10:30.589Z,8.01
2022-12-20T14:12:57.660Z,8.02
2022-12-20T14:15:34.199Z,7.92
2022-12-20T14:18:18.026Z,7.92
2022-12-20T14:20:45.687Z,7.96
2022-12-20T14:23:19.652Z,7.89
2022-12-20T14:25:54.868Z,7.87
2022-12-20T14:28:35.513Z,7.86
2022-12-20T14:31:03.413Z,7.84
2022-12-20T14:33:33.939Z,7.89
2022-12-20T14:36:15.917Z,7.91
2022-12-20T14:38:45.486Z,7.89
2022-12-20T14:41:38.113Z,7.86
2022-12-20T14:44:07.929Z,7.84
2022-12-20T14:46:35.973Z,7.83
2022-12-20T14:49:21.984Z,7.78
2022-12-20T14:51:49.189Z,7.78
2022-12-20T14:57:29.324Z,7.72
2022-12-20T15:00:14.903Z,7.64
2022-12-20T15:02:59.457Z,7.65
2022-12-20T15:05:35.991Z,7.62
2022-12-20T15:08:28.797Z,7.56
2022-12-20T15:11:01.160Z,7.59
2022-12-20T15:13:33.126Z,7.54
2022-12-20T15:16:05.295Z,7.50
2022-12-20T15:18:32.274Z,7.49
2022-12-20T15:21:05.610Z,7.44
2022-12-20T15:23:32.640Z,7.38
2022-12-20T15:25:59.329Z,7.32
2022-12-20T15:28:27.218Z,7.52
2022-12-20T15:30:55.409Z,7.35
2022-12-20T15:33:27.724Z,7.27
2022-12-20T15:35:54.786Z,7.29
2022-12-20T15:38:40.692Z,7.35
2022-12-20T15:41:14.490Z,7.69
2022-12-20T15:43:41.400Z,7.44
2022-12-20T15:46:08.468Z,7.47
2022-12-20T15:48:35.307Z,7.46
2022-12-20T15:51:03.128Z,7.44
2022-12-20T15:53:34.304Z,7.48
2022-12-20T15:56:01.301Z,7.47
2022-12-20T15:58:28.026Z,7.45
2022-12-20T16:00:58.691Z,7.42
2022-12-20T16:03:30.259Z,7.44
2022-12-20T16:05:57.762Z,7.43
2022-12-20T16:08:24.822Z,7.43
2022-12-20T16:10:52.236Z,7.45
2022-12-20T16:13:24.233Z,7.46
2022-12-20T16:15:52.576Z,7.46
2022-12-20T16:18:19.757Z,7.46
2022-12-20T16:20:46.555Z,7.46
2022-12-20T16:23:22.712Z,7.46
2022-12-20T16:25:50.920Z,7.55
2022-12-20T16:28:17.977Z,7.55
2022-12-20T16:30:50.951Z,7.58
2022-12-20T16:33:21.464Z,7.56
2022-12-20T16:35:48.195Z,7.59
2022-12-20T16:38:15.203Z,7.60
2022-12-20T16:40:42.076Z,7.60
2022-12-20T16:43:13.984Z,7.62
2022-12-20T16:45:41.489Z,7.63
2022-12-20T16:48:08.255Z,7.63
2022-12-20T16:50:41.645Z,7.59
2022-12-20T16:53:14.344Z,7.64
2022-12-20T16:55:41.269Z,7.59
2022-12-20T16:58:08.236Z,7.67
2022-12-20T17:00:37.246Z,7.67
2022-12-20T17:03:04.681Z,7.68
2022-12-20T17:05:35.287Z,7.64
2022-12-20T17:08:03.718Z,7.63
2022-12-20T17:10:30.657Z,7.62
2022-12-20T17:12:57.860Z,7.68
2022-12-20T17:15:30.567Z,7.65
2022-12-20T17:17:58.373Z,7.68
2022-12-20T17:20:25.389Z,7.68
2022-12-20T17:22:54.576Z,7.67
2022-12-20T17:25:23.198Z,7.63
2022-12-20T17:27:51.053Z,7.68
2022-12-20T17:30:18.772Z,7.64
2022-12-20T17:32:45.899Z,7.68
2022-12-20T17:35:30.648Z,7.67
2022-12-20T17:37:58.899Z,7.71
2022-12-20T17:40:26.937Z,7.70
2022-12-20T17:42:54.698Z,7.71
2022-12-20T17:45:31.544Z,7.68
2022-12-20T17:47:59.146Z,7.71
2022-12-20T17:50:26.570Z,7.75
2022-12-20T17:52:55.132Z,7.71
2022-12-20T17:55:25.329Z,7.70
2022-12-20T17:57:53.246Z,7.74
2022-12-20T18:00:30.615Z,7.72
2022-12-20T18:03:01.581Z,7.73
2022-12-20T18:05:30.464Z,7.73
2022-12-20T18:07:57.168Z,7.77
2022-12-20T18:10:24.011Z,7.72
2022-12-20T18:12:53.883Z,7.71
2022-12-20T18:15:21.768Z,7.70
2022-12-20T18:17:48.545Z,7.73
2022-12-20T18:20:15.606Z,7.74
2022-12-20T18:22:45.734Z,7.71
2022-12-20T18:25:13.947Z,7.70
2022-12-20T18:27:42.577Z,7.65
2022-12-20T18:30:10.509Z,7.62
2022-12-20T18:32:37.328Z,7.64
2022-12-20T18:35:04.341Z,7.62
2022-12-20T18:37:31.139Z,7.58
2022-12-20T18:39:57.884Z,7.59
2022-12-20T18:42:24.769Z,7.55
2022-12-20T18:44:51.513Z,7.52
2022-12-20T18:47:18.389Z,7.46
2022-12-20T18:49:45.121Z,7.53
2022-12-20T18:52:11.963Z,7.53
2022-12-20T18:54:39.138Z,7.46
2022-12-20T18:57:06.534Z,7.56
2022-12-20T18:59:34.488Z,7.57
2022-12-20T19:02:01.561Z,7.45
2022-12-20T19:04:28.604Z,7.41
2022-12-20T19:06:55.427Z,7.46
2022-12-20T19:09:22.800Z,7.41
2022-12-20T19:11:56.288Z,7.44
2022-12-20T19:14:23.702Z,7.41
2022-12-20T19:16:51.805Z,7.40
2022-12-20T19:19:19.174Z,7.39
2022-12-20T19:21:49.204Z,7.44
2022-12-20T19:24:16.012Z,7.45
2022-12-20T19:26:44.763Z,7.44
2022-12-20T19:29:12.008Z,7.50
2022-12-20T19:31:39.092Z,7.54
2022-12-20T19:34:11.628Z,7.58
2022-12-20T19:36:41.662Z,7.65
2022-12-20T19:39:17.068Z,7.70
2022-12-20T19:41:50.733Z,7.68
2022-12-20T19:44:27.082Z,7.71
2022-12-20T19:46:55.035Z,7.73
2022-12-20T19:49:22.159Z,7.79
2022-12-20T19:51:49.395Z,7.78
2022-12-20T19:54:16.192Z,7.69
2022-12-20T19:56:46.744Z,7.68
2022-12-20T19:59:13.952Z,7.64
2022-12-20T20:01:41.354Z,7.65
2022-12-20T20:04:13.135Z,7.68
2022-12-20T20:06:39.836Z,7.73
2022-12-20T20:09:08.117Z,7.76
2022-12-20T20:11:34.800Z,7.79
2022-12-20T20:14:05.430Z,7.82
2022-12-20T20:16:33.118Z,7.78
2022-12-20T20:19:00.256Z,7.74
2022-12-20T20:21:27.269Z,7.78
2022-12-20T20:23:55.323Z,7.74
2022-12-20T20:26:30.032Z,7.70
2022-12-20T20:28:57.073Z,7.75
2022-12-20T20:31:24.383Z,7.73
2022-12-20T20:33:51.273Z,7.68
2022-12-20T20:36:23.332Z,7.63
2022-12-20T20:38:52.554Z,7.65
2022-12-20T20:41:19.924Z,7.62
2022-12-20T20:43:46.672Z,7.62
2022-12-20T20:46:15.464Z,7.68
2022-12-20T20:48:43.441Z,7.71
2022-12-20T20:51:13.854Z,7.69
2022-12-20T20:53:41.237Z,7.68
2022-12-20T20:56:08.910Z,7.62
2022-12-20T20:58:36.543Z,7.63
2022-12-20T21:01:05.208Z,7.64
2022-12-20T21:03:32.464Z,7.59
2022-12-20T21:08:46.404Z,7.59
2022-12-20T21:11:13.394Z,7.60
2022-12-20T21:13:40.421Z,7.55
2022-12-20T21:16:20.168Z,7.56
2022-12-20T21:18:54.763Z,7.56
2022-12-20T21:21:22.937Z,7.55
2022-12-20T21:23:50.156Z,7.61
2022-12-20T21:26:18.459Z,7.62
2022-12-20T21:28:45.982Z,7.57
2022-12-20T21:31:16.061Z,7.65
2022-12-20T21:33:43.229Z,7.65
2022-12-20T21:36:18.617Z,7.59
2022-12-20T21:38:50.449Z,7.64
2022-12-20T21:41:18.412Z,7.61
2022-12-20T21:43:45.711Z,7.62
2022-12-20T21:46:12.631Z,7.65
2022-12-20T21:48:41.237Z,7.60
2022-12-20T21:51:14.510Z,7.62
2022-12-20T21:53:50.151Z,7.58
2022-12-20T21:56:17.963Z,7.61
2022-12-20T21:58:45.975Z,7.59
2022-12-20T22:01:17.047Z,7.56
2022-12-20T22:03:46.998Z,7.53
2022-12-20T22:06:13.710Z,7.56
2022-12-20T22:08:40.536Z,7.55
2022-12-20T22:11:09.847Z,7.58
2022-12-20T22:13:41.646Z,7.59
2022-12-20T22:16:12.368Z,7.56
2022-12-20T22:18:40.512Z,7.57
2022-12-20T22:21:09.984Z,7.58
2022-12-20T22:23:37.537Z,7.50
2022-12-20T22:26:15.341Z,7.52
2022-12-20T22:28:54.270Z,7.50
2022-12-20T22:31:22.060Z,7.57
2022-12-20T22:33:49.414Z,7.59
2022-12-20T22:36:16.869Z,7.53
2022-12-20T22:38:44.722Z,7.56
2022-12-20T22:41:21.008Z,7.53
2022-12-20T22:43:48.196Z,7.52
2022-12-20T22:46:17.585Z,7.47
2022-12-20T22:48:45.369Z,7.53
2022-12-20T22:51:18.638Z,7.45
2022-12-20T22:53:47.520Z,7.45
2022-12-20T22:56:16.285Z,7.40
2022-12-20T22:58:43.172Z,7.48
2022-12-20T23:01:12.566Z,7.44
2022-12-20T23:03:39.975Z,7.48
2022-12-20T23:06:09.057Z,7.50
2022-12-20T23:08:37.185Z,7.55
2022-12-20T23:11:25.646Z,7.52
2022-12-20T23:14:10.897Z,7.46
2022-12-20T23:16:38.572Z,7.50
2022-12-20T23:19:05.428Z,7.49
2022-12-20T23:21:50.830Z,7.49
2022-12-20T23:24:17.717Z,7.48
2022-12-20T23:26:44.719Z,7.46
2022-12-20T23:29:11.785Z,7.47
2022-12-20T23:31:38.528Z,7.46
2022-12-20T23:34:05.713Z,7.48
2022-12-20T23:36:33.324Z,7.50
2022-12-20T23:39:00.524Z,7.47
2022-12-20T23:41:27.619Z,7.53
2022-12-20T23:43:54.439Z,7.50
2022-12-20T23:46:24.177Z,7.55
2022-12-20T23:48:51.869Z,7.43
2022-12-20T23:51:19.333Z,7.45
2022-12-20T23:53:46.094Z,7.45
2022-12-20T23:56:18.674Z,7.40
2022-12-20T23:58:46.329Z,7.42
